sensor_id;sensor_type;location;lat;lon;timestamp;pressure;altitude;pressure_sealevel;temperature;humidity
48027;BME280;50714;49.208;5.364;2023-02-16T00:04:38;100502.25;;;3.06;70.08
48027;BME280;50714;49.208;5.364;2023-02-16T00:14:38;100497.44;;;3.00;70.36
48027;BME280;50714;49.208;5.364;2023-02-16T00:24:39;100498.03;;;2.83;70.63
48027;BME280;50714;49.208;5.364;2023-02-16T00:34:40;100491.56;;;2.86;71.44
48027;BME280;50714;49.208;5.364;2023-02-16T00:44:43;100481.94;;;2.73;71.73
48027;BME280;50714;49.208;5.364;2023-02-16T00:54:45;100478.75;;;2.59;71.23
48027;BME280;50714;49.208;5.364;2023-02-16T01:04:46;100475.28;;;2.47;71.37
48027;BME280;50714;49.208;5.364;2023-02-16T01:14:51;100479.94;;;2.34;71.92
48027;BME280;50714;49.208;5.364;2023-02-16T01:24:52;100485.84;;;2.37;72.73
48027;BME280;50714;49.208;5.364;2023-02-16T01:34:52;100477.84;;;2.37;72.23
48027;BME280;50714;49.208;5.364;2023-02-16T01:44:59;100485.28;;;2.23;72.34
48027;BME280;50714;49.208;5.364;2023-02-16T01:55:12;100469.38;;;2.12;72.67
48027;BME280;50714;49.208;5.364;2023-02-16T02:05:24;100467.81;;;2.09;73.03
48027;BME280;50714;49.208;5.364;2023-02-16T02:15:35;100458.06;;;2.19;72.81
48027;BME280;50714;49.208;5.364;2023-02-16T02:25:50;100445.13;;;2.15;73.07
48027;BME280;50714;49.208;5.364;2023-02-16T02:36:14;100440.00;;;1.91;75.26
48027;BME280;50714;49.208;5.364;2023-02-16T02:56:28;100423.69;;;1.84;74.27
48027;BME280;50714;49.208;5.364;2023-02-16T03:06:59;100422.50;;;1.77;73.28
48027;BME280;50714;49.208;5.364;2023-02-16T03:17:06;100417.19;;;1.66;73.70
48027;BME280;50714;49.208;5.364;2023-02-16T03:27:32;100410.66;;;1.70;73.61
48027;BME280;50714;49.208;5.364;2023-02-16T03:37:52;100414.97;;;1.39;74.38
48027;BME280;50714;49.208;5.364;2023-02-16T03:47:53;100409.63;;;1.28;74.64
48027;BME280;50714;49.208;5.364;2023-02-16T03:57:53;100408.06;;;1.36;74.45
48027;BME280;50714;49.208;5.364;2023-02-16T04:07:54;100404.19;;;1.18;75.35
48027;BME280;50714;49.208;5.364;2023-02-16T04:17:54;100404.81;;;1.33;75.13
48027;BME280;50714;49.208;5.364;2023-02-16T04:27:55;100402.03;;;1.34;74.46
48027;BME280;50714;49.208;5.364;2023-02-16T04:37:55;100414.13;;;1.16;74.92
48027;BME280;50714;49.208;5.364;2023-02-16T04:47:56;100406.03;;;1.18;74.58
48027;BME280;50714;49.208;5.364;2023-02-16T04:57:56;100404.19;;;1.29;75.39
48027;BME280;50714;49.208;5.364;2023-02-16T05:07:57;100415.22;;;1.14;74.88
48027;BME280;50714;49.208;5.364;2023-02-16T05:17:57;100419.31;;;1.07;74.41
48027;BME280;50714;49.208;5.364;2023-02-16T05:27:57;100413.88;;;1.08;75.31
48027;BME280;50714;49.208;5.364;2023-02-16T05:37:58;100416.63;;;0.95;75.67
48027;BME280;50714;49.208;5.364;2023-02-16T05:47:58;100409.63;;;1.06;76.03
48027;BME280;50714;49.208;5.364;2023-02-16T05:57:58;100417.59;;;1.06;75.47
48027;BME280;50714;49.208;5.364;2023-02-16T06:07:59;100405.03;;;0.85;74.99
48027;BME280;50714;49.208;5.364;2023-02-16T06:17:59;100414.69;;;0.86;75.43
48027;BME280;50714;49.208;5.364;2023-02-16T06:28:01;100420.75;;;0.88;75.13
48027;BME280;50714;49.208;5.364;2023-02-16T06:38:01;100429.41;;;0.79;75.17
48027;BME280;50714;49.208;5.364;2023-02-16T06:48:02;100424.47;;;0.86;75.39
48027;BME280;50714;49.208;5.364;2023-02-16T06:58:03;100425.97;;;1.12;76.95
48027;BME280;50714;49.208;5.364;2023-02-16T07:08:03;100439.84;;;1.38;76.90
48027;BME280;50714;49.208;5.364;2023-02-16T07:18:04;100438.47;;;1.66;76.87
48027;BME280;50714;49.208;5.364;2023-02-16T07:28:04;100452.09;;;1.95;77.97
48027;BME280;50714;49.208;5.364;2023-02-16T07:38:05;100458.28;;;2.27;78.05
48027;BME280;50714;49.208;5.364;2023-02-16T07:48:05;100464.09;;;2.32;78.40
48027;BME280;50714;49.208;5.364;2023-02-16T07:58:06;100461.25;;;2.66;78.26
48027;BME280;50714;49.208;5.364;2023-02-16T08:08:06;100458.72;;;3.06;77.92
48027;BME280;50714;49.208;5.364;2023-02-16T08:18:07;100448.88;;;3.27;77.83
48027;BME280;50714;49.208;5.364;2023-02-16T08:28:07;100444.69;;;3.74;77.45
48027;BME280;50714;49.208;5.364;2023-02-16T08:38:07;100440.81;;;4.17;76.45
48027;BME280;50714;49.208;5.364;2023-02-16T08:48:08;100440.41;;;4.41;76.63
48027;BME280;50714;49.208;5.364;2023-02-16T08:58:08;100455.59;;;4.50;76.77
48027;BME280;50714;49.208;5.364;2023-02-16T09:08:09;100476.53;;;4.74;77.16
48027;BME280;50714;49.208;5.364;2023-02-16T09:18:10;100463.69;;;5.53;76.48
48027;BME280;50714;49.208;5.364;2023-02-16T09:28:13;100465.81;;;6.32;74.91
48027;BME280;50714;49.208;5.364;2023-02-16T09:38:15;100453.59;;;7.16;72.94
48027;BME280;50714;49.208;5.364;2023-02-16T09:58:39;100479.94;;;9.61;66.64
48027;BME280;50714;49.208;5.364;2023-02-16T10:08:47;100474.63;;;9.29;66.52
48027;BME280;50714;49.208;5.364;2023-02-16T10:18:51;100477.88;;;8.92;67.73
48027;BME280;50714;49.208;5.364;2023-02-16T10:28:56;100485.44;;;8.72;67.39
48027;BME280;50714;49.208;5.364;2023-02-16T10:39:06;100476.66;;;8.45;68.16
48027;BME280;50714;49.208;5.364;2023-02-16T10:49:10;100493.63;;;8.46;67.93
48027;BME280;50714;49.208;5.364;2023-02-16T10:59:21;100487.75;;;8.59;68.01
48027;BME280;50714;49.208;5.364;2023-02-16T11:09:27;100457.16;;;8.84;68.62
48027;BME280;50714;49.208;5.364;2023-02-16T11:19:27;100433.91;;;8.99;68.81
48027;BME280;50714;49.208;5.364;2023-02-16T11:29:31;100434.72;;;9.24;67.93
48027;BME280;50714;49.208;5.364;2023-02-16T11:39:36;100447.28;;;9.56;67.39
48027;BME280;50714;49.208;5.364;2023-02-16T11:49:40;100439.59;;;9.84;67.98
48027;BME280;50714;49.208;5.364;2023-02-16T11:59:40;100428.84;;;10.07;67.27
48027;BME280;50714;49.208;5.364;2023-02-16T12:51:16;100401.75;;;10.00;67.63
48027;BME280;50714;49.208;5.364;2023-02-16T13:01:27;100379.84;;;9.95;67.36
48027;BME280;50714;49.208;5.364;2023-02-16T13:11:37;100395.81;;;10.05;67.70
48027;BME280;50714;49.208;5.364;2023-02-16T13:43:07;100335.50;;;9.98;69.79
48027;BME280;50714;49.208;5.364;2023-02-16T13:53:20;100322.47;;;9.86;71.50
48027;BME280;50714;49.208;5.364;2023-02-16T14:13:46;100315.88;;;9.89;72.37
48027;BME280;50714;49.208;5.364;2023-02-16T14:23:54;100319.13;;;10.07;71.45
48027;BME280;50714;49.208;5.364;2023-02-16T14:34:02;100310.59;;;10.41;70.82
48027;BME280;50714;49.208;5.364;2023-02-16T15:04:09;100316.72;;;11.17;67.94
48027;BME280;50714;49.208;5.364;2023-02-16T15:14:14;100313.56;;;10.99;67.83
48027;BME280;50714;49.208;5.364;2023-02-16T15:24:22;100309.84;;;10.85;67.83
48027;BME280;50714;49.208;5.364;2023-02-16T15:34:34;100313.09;;;10.80;67.74
48027;BME280;50714;49.208;5.364;2023-02-16T15:44:35;100289.16;;;10.77;67.84
48027;BME280;50714;49.208;5.364;2023-02-16T15:54:38;100286.47;;;10.63;68.26
48027;BME280;50714;49.208;5.364;2023-02-16T16:04:41;100277.47;;;10.47;68.64
48027;BME280;50714;49.208;5.364;2023-02-16T16:14:49;100276.91;;;10.37;68.79
48027;BME280;50714;49.208;5.364;2023-02-16T16:24:51;100276.31;;;10.27;68.83
48027;BME280;50714;49.208;5.364;2023-02-16T16:34:52;100272.44;;;10.30;68.85
48027;BME280;50714;49.208;5.364;2023-02-16T16:45:03;100269.63;;;10.23;68.38
48027;BME280;50714;49.208;5.364;2023-02-16T16:55:20;100282.56;;;10.05;68.55
48027;BME280;50714;49.208;5.364;2023-02-16T17:05:21;100277.28;;;9.88;68.12
48027;BME280;50714;49.208;5.364;2023-02-16T17:25:35;100303.41;;;9.65;69.06
48027;BME280;50714;49.208;5.364;2023-02-16T17:35:38;100310.31;;;9.60;69.06
48027;BME280;50714;49.208;5.364;2023-02-16T17:45:39;100322.13;;;9.58;69.43
48027;BME280;50714;49.208;5.364;2023-02-16T17:55:41;100308.47;;;9.60;69.56
48027;BME280;50714;49.208;5.364;2023-02-16T18:05:42;100319.06;;;9.62;69.57
48027;BME280;50714;49.208;5.364;2023-02-16T18:15:46;100321.41;;;9.65;69.52
48027;BME280;50714;49.208;5.364;2023-02-16T18:25:46;100319.75;;;9.64;69.61
48027;BME280;50714;49.208;5.364;2023-02-16T18:35:49;100311.00;;;9.62;69.91
48027;BME280;50714;49.208;5.364;2023-02-16T18:45:49;100319.59;;;9.57;70.18
48027;BME280;50714;49.208;5.364;2023-02-16T18:55:50;100328.69;;;9.56;70.37
48027;BME280;50714;49.208;5.364;2023-02-16T19:05:50;100335.59;;;9.58;70.89
48027;BME280;50714;49.208;5.364;2023-02-16T19:15:51;100333.50;;;9.69;70.67
48027;BME280;50714;49.208;5.364;2023-02-16T19:25:51;100329.25;;;9.74;70.69
48027;BME280;50714;49.208;5.364;2023-02-16T19:36:05;100338.38;;;9.96;70.74
48027;BME280;50714;49.208;5.364;2023-02-16T19:46:06;100347.28;;;10.05;70.24
48027;BME280;50714;49.208;5.364;2023-02-16T19:56:10;100345.25;;;10.07;70.74
48027;BME280;50714;49.208;5.364;2023-02-16T20:06:15;100353.59;;;10.20;71.09
48027;BME280;50714;49.208;5.364;2023-02-16T20:16:16;100362.97;;;10.32;73.61
48027;BME280;50714;49.208;5.364;2023-02-16T20:26:23;100365.03;;;10.22;77.75
48027;BME280;50714;49.208;5.364;2023-02-16T20:36:23;100362.44;;;10.06;78.71
48027;BME280;50714;49.208;5.364;2023-02-16T20:46:24;100368.72;;;9.98;79.05
48027;BME280;50714;49.208;5.364;2023-02-16T20:56:26;100356.78;;;9.92;79.32
48027;BME280;50714;49.208;5.364;2023-02-16T21:06:26;100370.66;;;9.89;80.82
48027;BME280;50714;49.208;5.364;2023-02-16T21:16:27;100371.00;;;9.86;81.35
48027;BME280;50714;49.208;5.364;2023-02-16T21:26:28;100365.63;;;9.78;82.51
48027;BME280;50714;49.208;5.364;2023-02-16T21:36:28;100373.59;;;9.72;84.36
48027;BME280;50714;49.208;5.364;2023-02-16T21:46:32;100362.38;;;9.60;87.08
48027;BME280;50714;49.208;5.364;2023-02-16T21:56:41;100359.19;;;9.56;88.56
48027;BME280;50714;49.208;5.364;2023-02-16T22:06:44;100339.00;;;9.52;88.97
48027;BME280;50714;49.208;5.364;2023-02-16T22:16:46;100338.31;;;9.50;90.59
48027;BME280;50714;49.208;5.364;2023-02-16T22:26:47;100321.50;;;9.48;92.21
48027;BME280;50714;49.208;5.364;2023-02-16T22:36:48;100318.63;;;9.50;92.93
48027;BME280;50714;49.208;5.364;2023-02-16T22:46:49;100319.47;;;9.50;93.68
48027;BME280;50714;49.208;5.364;2023-02-16T22:56:49;100326.69;;;9.50;94.94
48027;BME280;50714;49.208;5.364;2023-02-16T23:06:49;100319.47;;;9.50;95.86
48027;BME280;50714;49.208;5.364;2023-02-16T23:16:51;100328.38;;;9.51;96.60
48027;BME280;50714;49.208;5.364;2023-02-16T23:26:53;100333.78;;;9.51;98.08
48027;BME280;50714;49.208;5.364;2023-02-16T23:36:53;100321.63;;;9.55;97.50
48027;BME280;50714;49.208;5.364;2023-02-16T23:46:53;100330.22;;;9.58;97.22
48027;BME280;50714;49.208;5.364;2023-02-16T23:56:54;100337.09;;;9.61;96.92
